createdAt,value
2017-10-05T01:36:36.505Z,1009.97
2017-10-05T01:36:37.079Z,1009.95
2017-10-05T01:36:37.684Z,1009.93
2017-10-05T01:36:38.279Z,1009.95
2017-10-05T01:36:38.878Z,1009.98
2017-10-05T01:36:39.478Z,1009.98
2017-10-05T01:36:40.078Z,1009.94
2017-10-05T01:36:40.677Z,1009.98
2017-10-05T01:37:35.186Z,1009.91
2017-10-05T01:37:35.755Z,1009.87
2017-10-05T01:37:36.355Z,1009.87
2017-10-05T01:37:36.954Z,1009.89
2017-10-05T01:37:37.555Z,1009.87
2017-10-05T01:37:38.156Z,1009.88
2017-10-05T01:37:38.754Z,1009.87
2017-10-05T01:37:39.355Z,1009.87
2017-10-05T01:38:32.837Z,1009.84
2017-10-05T01:38:33.408Z,1009.84
2017-10-05T01:38:34.007Z,1009.84
2017-10-05T01:38:34.608Z,1009.82
2017-10-05T01:38:35.207Z,1009.84
2017-10-05T01:38:35.809Z,1009.87
2017-10-05T01:38:36.407Z,1009.83
2017-10-05T01:38:37.008Z,1009.84
2017-10-05T01:39:30.489Z,1009.79
2017-10-05T01:39:31.059Z,1009.81
2017-10-05T01:39:31.660Z,1009.82
2017-10-05T01:39:32.259Z,1009.77
2017-10-05T01:39:32.860Z,1009.80
2017-10-05T01:39:33.459Z,1009.82
2017-10-05T01:39:34.059Z,1009.82
2017-10-05T01:39:34.660Z,1009.82
2017-10-05T01:40:29.163Z,1009.84
2017-10-05T01:40:29.737Z,1009.84
2017-10-05T01:40:30.335Z,1009.79
2017-10-05T01:40:30.935Z,1009.78
2017-10-05T01:40:31.534Z,1009.79
2017-10-05T01:40:32.137Z,1009.79
2017-10-05T01:40:32.735Z,1009.79
2017-10-05T01:40:33.335Z,1009.78
2017-10-05T01:41:27.839Z,1009.86
2017-10-05T01:41:28.411Z,1009.84
2017-10-05T01:41:29.011Z,1009.82
2017-10-05T01:41:29.612Z,1009.84
2017-10-05T01:41:30.211Z,1009.81
2017-10-05T01:41:30.810Z,1009.82
2017-10-05T01:41:31.410Z,1009.83
2017-10-05T01:41:32.012Z,1009.84
2017-10-05T01:42:25.492Z,1009.86
2017-10-05T01:42:26.067Z,1009.86
2017-10-05T01:42:26.665Z,1009.85
2017-10-05T01:42:27.265Z,1009.83
2017-10-05T01:42:27.864Z,1009.85
2017-10-05T01:42:28.464Z,1009.85
2017-10-05T01:42:29.062Z,1009.88
2017-10-05T01:42:29.662Z,1009.90
2017-10-05T01:43:24.167Z,1009.87
2017-10-05T01:43:24.738Z,1009.83
2017-10-05T01:43:25.339Z,1009.85
2017-10-05T01:43:25.941Z,1009.88
2017-10-05T01:43:26.539Z,1009.85
2017-10-05T01:43:27.139Z,1009.85
2017-10-05T01:43:27.739Z,1009.79
2017-10-05T01:43:28.341Z,1009.86
2017-10-05T01:44:22.843Z,1009.83
2017-10-05T01:44:23.416Z,1009.82
2017-10-05T01:44:24.015Z,1009.82
2017-10-05T01:44:24.620Z,1009.83
2017-10-05T01:44:25.214Z,1009.82
2017-10-05T01:44:25.814Z,1009.87
2017-10-05T01:44:26.415Z,1009.81
2017-10-05T01:44:27.014Z,1009.84
2017-10-05T01:45:21.571Z,1009.75
2017-10-05T01:45:22.159Z,1009.69
2017-10-05T01:45:22.696Z,1009.73
2017-10-05T01:45:23.341Z,1009.74
2017-10-05T01:45:23.902Z,1009.76
2017-10-05T01:45:24.541Z,1009.78
2017-10-05T01:45:25.096Z,1009.74
2017-10-05T01:45:25.746Z,1009.80
2017-10-05T01:46:20.704Z,1009.71
2017-10-05T01:46:21.281Z,1009.70
2017-10-05T01:46:21.879Z,1009.70
2017-10-05T01:46:22.478Z,1009.74
2017-10-05T01:46:23.078Z,1009.71
2017-10-05T01:46:23.678Z,1009.67
2017-10-05T01:46:24.279Z,1009.66
2017-10-05T01:47:17.848Z,1009.69
2017-10-05T01:47:18.421Z,1009.65
2017-10-05T01:47:19.020Z,1009.66
2017-10-05T01:47:19.619Z,1009.69
2017-10-05T01:47:20.221Z,1009.67
2017-10-05T01:47:20.825Z,1009.67
2017-10-05T01:47:21.420Z,1009.62
2017-10-05T01:47:22.019Z,1009.66
2017-10-05T01:48:15.498Z,1009.61
2017-10-05T01:48:16.072Z,1009.60
2017-10-05T01:48:16.669Z,1009.59
2017-10-05T01:48:17.270Z,1009.56
2017-10-05T01:48:17.871Z,1009.59
2017-10-05T01:48:18.470Z,1009.60
2017-10-05T01:48:19.070Z,1009.62
2017-10-05T01:48:19.671Z,1009.59
2017-10-05T01:49:13.149Z,1009.65
2017-10-05T01:49:13.725Z,1009.66
2017-10-05T01:49:14.324Z,1009.68
2017-10-05T01:49:14.924Z,1009.67
2017-10-05T01:49:15.523Z,1009.67
2017-10-05T01:49:16.122Z,1009.68
2017-10-05T01:49:16.725Z,1009.62
2017-10-05T01:49:17.323Z,1009.64
2017-10-05T01:50:10.805Z,1009.65
2017-10-05T01:50:11.376Z,1009.67
2017-10-05T01:50:11.974Z,1009.69
2017-10-05T01:50:12.575Z,1009.69
2017-10-05T01:50:13.176Z,1009.68
2017-10-05T01:50:13.776Z,1009.64
2017-10-05T01:50:14.374Z,1009.64
2017-10-05T01:50:14.973Z,1009.62
2017-10-05T01:51:08.452Z,1009.65
2017-10-05T01:51:09.026Z,1009.62
2017-10-05T01:51:09.627Z,1009.65
2017-10-05T01:51:10.227Z,1009.63
2017-10-05T01:51:10.827Z,1009.63
2017-10-05T01:51:11.426Z,1009.63
2017-10-05T01:51:12.025Z,1009.65
2017-10-05T01:51:12.626Z,1009.65
2017-10-05T01:52:07.129Z,1009.66
2017-10-05T01:52:07.702Z,1009.69
2017-10-05T01:52:08.301Z,1009.69
2017-10-05T01:52:08.902Z,1009.67
2017-10-05T01:52:09.501Z,1009.71
2017-10-05T01:52:10.104Z,1009.68
2017-10-05T01:52:10.702Z,1009.67
2017-10-05T01:52:11.302Z,1009.66
2017-10-05T01:53:05.805Z,1009.60
2017-10-05T01:53:06.378Z,1009.56
2017-10-05T01:53:06.977Z,1009.59
2017-10-05T01:53:07.577Z,1009.63
2017-10-05T01:53:08.181Z,1009.61
2017-10-05T01:53:08.778Z,1009.66
2017-10-05T01:53:09.378Z,1009.65
2017-10-05T01:53:09.977Z,1009.65
2017-10-05T01:54:03.455Z,1009.69
2017-10-05T01:54:04.030Z,1009.68
2017-10-05T01:54:04.630Z,1009.67
2017-10-05T01:54:05.230Z,1009.67
2017-10-05T01:54:05.831Z,1009.70
2017-10-05T01:54:06.428Z,1009.70
2017-10-05T01:54:07.030Z,1009.70
2017-10-05T01:54:07.629Z,1009.67
2017-10-05T01:55:01.107Z,1009.62
2017-10-05T01:55:01.682Z,1009.61
2017-10-05T01:55:02.282Z,1009.60
2017-10-05T01:55:02.886Z,1009.58
2017-10-05T01:55:03.481Z,1009.63
2017-10-05T01:55:04.083Z,1009.64
2017-10-05T01:55:04.685Z,1009.65
2017-10-05T01:55:05.281Z,1009.64
2017-10-05T01:55:58.763Z,1009.69
2017-10-05T01:55:59.336Z,1009.70
2017-10-05T01:55:59.934Z,1009.70
2017-10-05T01:56:00.533Z,1009.70
2017-10-05T01:56:01.132Z,1009.67
2017-10-05T01:56:01.733Z,1009.65
2017-10-05T01:56:02.336Z,1009.71
2017-10-05T01:56:02.930Z,1009.67
2017-10-05T01:56:56.410Z,1009.64
2017-10-05T01:56:56.992Z,1009.63
2017-10-05T01:56:57.584Z,1009.63
2017-10-05T01:56:58.191Z,1009.65
2017-10-05T01:56:58.783Z,1009.66
2017-10-05T01:56:59.383Z,1009.68
2017-10-05T01:56:59.982Z,1009.66
2017-10-05T01:57:00.582Z,1009.69
2017-10-05T01:57:55.087Z,1009.72
2017-10-05T01:57:55.660Z,1009.73
2017-10-05T01:57:56.260Z,1009.72
2017-10-05T01:57:56.860Z,1009.76
2017-10-05T01:57:57.459Z,1009.74
2017-10-05T01:57:58.059Z,1009.73
2017-10-05T01:57:58.662Z,1009.72
2017-10-05T01:57:59.260Z,1009.72
2017-10-05T01:58:52.737Z,1009.71
2017-10-05T01:58:53.313Z,1009.70
2017-10-05T01:58:53.913Z,1009.67
2017-10-05T01:58:54.512Z,1009.70
2017-10-05T01:58:55.112Z,1009.71
2017-10-05T01:58:55.714Z,1009.70
2017-10-05T01:58:56.312Z,1009.71
2017-10-05T01:58:56.911Z,1009.70
2017-10-05T01:59:51.415Z,1009.56
2017-10-05T01:59:51.988Z,1009.56
2017-10-05T01:59:52.587Z,1009.54
2017-10-05T01:59:53.186Z,1009.54
2017-10-05T01:59:53.787Z,1009.52
2017-10-05T01:59:54.386Z,1009.56
2017-10-05T01:59:54.992Z,1009.57
2017-10-05T01:59:55.587Z,1009.57
2017-10-05T02:00:50.090Z,1009.46
2017-10-05T02:00:50.663Z,1009.47
2017-10-05T02:00:51.263Z,1009.44
2017-10-05T02:00:51.863Z,1009.46
2017-10-05T02:00:52.462Z,1009.49
2017-10-05T02:00:53.063Z,1009.46
2017-10-05T02:00:53.664Z,1009.47
2017-10-05T02:00:54.262Z,1009.46
2017-10-05T02:01:47.741Z,1009.47
2017-10-05T02:01:48.315Z,1009.44
2017-10-05T02:01:48.915Z,1009.44
2017-10-05T02:01:49.516Z,1009.43
2017-10-05T02:01:50.115Z,1009.45
2017-10-05T02:01:50.715Z,1009.43
2017-10-05T02:01:51.317Z,1009.43
2017-10-05T02:01:51.918Z,1009.42
2017-10-05T02:02:46.419Z,1009.32
2017-10-05T02:02:46.990Z,1009.28
2017-10-05T02:02:47.590Z,1009.30
2017-10-05T02:02:48.190Z,1009.32
2017-10-05T02:02:48.789Z,1009.30
2017-10-05T02:02:49.389Z,1009.31
2017-10-05T02:02:49.990Z,1009.28
2017-10-05T02:02:50.590Z,1009.26
2017-10-05T02:03:45.093Z,1009.24
2017-10-05T02:03:45.668Z,1009.26
2017-10-05T02:03:46.267Z,1009.24
2017-10-05T02:03:46.871Z,1009.22
2017-10-05T02:03:47.466Z,1009.22
2017-10-05T02:03:48.066Z,1009.21
2017-10-05T02:03:48.667Z,1009.23
2017-10-05T02:03:49.266Z,1009.24
2017-10-05T02:04:42.744Z,1009.23
2017-10-05T02:04:43.318Z,1009.24
2017-10-05T02:04:43.918Z,1009.23
2017-10-05T02:04:44.517Z,1009.25
2017-10-05T02:04:45.121Z,1009.24
2017-10-05T02:04:45.717Z,1009.22
2017-10-05T02:04:46.317Z,1009.24
2017-10-05T02:04:46.917Z,1009.21
2017-10-05T02:05:41.424Z,1009.26
2017-10-05T02:05:41.994Z,1009.27
2017-10-05T02:05:42.592Z,1009.25
2017-10-05T02:05:43.195Z,1009.29
2017-10-05T02:05:43.792Z,1009.28
2017-10-05T02:05:44.392Z,1009.28
2017-10-05T02:05:44.992Z,1009.30
2017-10-05T02:05:45.592Z,1009.31
2017-10-05T02:06:39.582Z,1009.32
2017-10-05T02:06:40.161Z,1009.34
2017-10-05T02:06:40.757Z,1009.31
2017-10-05T02:06:41.356Z,1009.30
2017-10-05T02:06:41.961Z,1009.32
2017-10-05T02:06:42.557Z,1009.30
2017-10-05T02:06:43.157Z,1009.30
2017-10-05T02:07:36.723Z,1009.28
2017-10-05T02:07:37.298Z,1009.26
2017-10-05T02:07:37.897Z,1009.26
2017-10-05T02:07:38.497Z,1009.26
2017-10-05T02:07:39.098Z,1009.22
2017-10-05T02:07:39.696Z,1009.24
2017-10-05T02:07:40.297Z,1009.23
2017-10-05T02:07:40.897Z,1009.24
2017-10-05T02:08:35.400Z,1009.18
2017-10-05T02:08:35.973Z,1009.19
2017-10-05T02:08:36.573Z,1009.17
2017-10-05T02:08:37.173Z,1009.22
2017-10-05T02:08:37.774Z,1009.17
2017-10-05T02:08:38.374Z,1009.19
2017-10-05T02:08:38.973Z,1009.19
2017-10-05T02:08:39.572Z,1009.21
2017-10-05T02:09:33.050Z,1009.17
2017-10-05T02:09:33.625Z,1009.17
2017-10-05T02:09:34.225Z,1009.17
2017-10-05T02:09:34.824Z,1009.19
2017-10-05T02:09:35.428Z,1009.17
2017-10-05T02:09:36.023Z,1009.17
2017-10-05T02:09:36.624Z,1009.17
2017-10-05T02:09:37.226Z,1009.18
2017-10-05T02:10:31.727Z,1009.17
2017-10-05T02:10:32.299Z,1009.19
2017-10-05T02:10:32.900Z,1009.17
2017-10-05T02:10:33.500Z,1009.20
2017-10-05T02:10:34.100Z,1009.16
2017-10-05T02:10:34.699Z,1009.17
2017-10-05T02:10:35.299Z,1009.19
2017-10-05T02:10:35.902Z,1009.20
2017-10-05T02:11:29.378Z,1009.14
2017-10-05T02:11:29.952Z,1009.12
2017-10-05T02:11:30.555Z,1009.12
2017-10-05T02:11:31.151Z,1009.12
2017-10-05T02:11:31.751Z,1009.12
2017-10-05T02:11:32.351Z,1009.10
2017-10-05T02:11:32.951Z,1009.10
2017-10-05T02:11:33.551Z,1009.14
2017-10-05T02:12:28.053Z,1009.08
2017-10-05T02:12:28.628Z,1009.11
2017-10-05T02:12:29.228Z,1009.07
2017-10-05T02:12:29.826Z,1009.11
2017-10-05T02:12:30.428Z,1009.11
2017-10-05T02:12:31.025Z,1009.10
2017-10-05T02:12:31.626Z,1009.12
2017-10-05T02:12:32.225Z,1009.11
2017-10-05T02:13:26.728Z,1009.08
2017-10-05T02:13:27.304Z,1009.06
2017-10-05T02:13:27.906Z,1009.05
2017-10-05T02:13:28.502Z,1009.05
2017-10-05T02:13:29.101Z,1009.04
2017-10-05T02:13:29.703Z,1009.07
2017-10-05T02:13:30.302Z,1009.09
2017-10-05T02:13:30.902Z,1009.08
2017-10-05T02:14:25.403Z,1009.10
2017-10-05T02:14:25.982Z,1009.13
2017-10-05T02:14:26.579Z,1009.13
2017-10-05T02:14:27.178Z,1009.12
2017-10-05T02:14:27.778Z,1009.14
2017-10-05T02:14:28.377Z,1009.16
2017-10-05T02:14:28.976Z,1009.15
2017-10-05T02:14:29.577Z,1009.15
2017-10-05T02:15:24.080Z,1009.06
2017-10-05T02:15:24.654Z,1009.08
2017-10-05T02:15:25.254Z,1009.06
2017-10-05T02:15:25.854Z,1009.06
2017-10-05T02:15:26.452Z,1009.04
2017-10-05T02:15:27.053Z,1009.05
2017-10-05T02:15:27.653Z,1009.06
2017-10-05T02:15:28.253Z,1009.06
2017-10-05T02:16:22.756Z,1008.99
2017-10-05T02:16:23.330Z,1009.00
2017-10-05T02:16:23.930Z,1009.02
2017-10-05T02:16:24.529Z,1009.02
2017-10-05T02:16:25.129Z,1009.02
2017-10-05T02:16:25.729Z,1009.01
2017-10-05T02:16:26.339Z,1009.01
2017-10-05T02:16:26.929Z,1009.01
2017-10-05T02:17:21.439Z,1008.97
2017-10-05T02:17:22.004Z,1008.96
2017-10-05T02:17:22.608Z,1008.99
2017-10-05T02:17:23.204Z,1008.98
2017-10-05T02:17:23.813Z,1008.94
2017-10-05T02:17:24.404Z,1008.96
2017-10-05T02:17:25.004Z,1008.98
2017-10-05T02:17:25.605Z,1008.98
2017-10-05T02:18:19.083Z,1008.92
2017-10-05T02:18:19.660Z,1008.89
2017-10-05T02:18:20.258Z,1008.89
2017-10-05T02:18:20.856Z,1008.93
2017-10-05T02:18:21.457Z,1008.90
2017-10-05T02:18:22.057Z,1008.92
2017-10-05T02:18:22.657Z,1008.88
2017-10-05T02:18:23.258Z,1008.91
2017-10-05T02:19:16.738Z,1008.88
2017-10-05T02:19:17.312Z,1008.85
2017-10-05T02:19:17.909Z,1008.90
2017-10-05T02:19:18.509Z,1008.88
2017-10-05T02:19:19.110Z,1008.86
2017-10-05T02:19:19.710Z,1008.85
2017-10-05T02:19:20.309Z,1008.83
2017-10-05T02:19:20.911Z,1008.84
2017-10-05T02:20:15.414Z,1008.92
2017-10-05T02:20:15.984Z,1008.90
2017-10-05T02:20:16.584Z,1008.89
2017-10-05T02:20:17.184Z,1008.88
2017-10-05T02:20:17.785Z,1008.91
2017-10-05T02:20:18.384Z,1008.92
2017-10-05T02:20:18.984Z,1008.90
2017-10-05T02:20:19.583Z,1008.91
2017-10-05T02:21:13.062Z,1008.85
2017-10-05T02:21:13.637Z,1008.89
2017-10-05T02:21:14.237Z,1008.88
2017-10-05T02:21:14.837Z,1008.84
2017-10-05T02:21:15.438Z,1008.87
2017-10-05T02:21:16.038Z,1008.88
2017-10-05T02:21:16.636Z,1008.88
2017-10-05T02:21:17.235Z,1008.87
2017-10-05T02:22:11.739Z,1008.80
2017-10-05T02:22:12.311Z,1008.79
2017-10-05T02:22:12.911Z,1008.80
2017-10-05T02:22:13.512Z,1008.80
2017-10-05T02:22:14.110Z,1008.81
2017-10-05T02:22:14.711Z,1008.75
2017-10-05T02:22:15.311Z,1008.78
2017-10-05T02:22:15.911Z,1008.78
2017-10-05T02:23:09.391Z,1008.73
2017-10-05T02:23:09.964Z,1008.72
2017-10-05T02:23:10.565Z,1008.76
2017-10-05T02:23:11.164Z,1008.74
2017-10-05T02:23:11.765Z,1008.75
2017-10-05T02:23:12.365Z,1008.71
2017-10-05T02:23:12.964Z,1008.70
2017-10-05T02:23:13.563Z,1008.73
2017-10-05T02:24:57.217Z,1008.64
2017-10-05T02:24:57.791Z,1008.66
2017-10-05T02:24:58.390Z,1008.65
2017-10-05T02:24:58.991Z,1008.66
2017-10-05T02:24:59.590Z,1008.64
2017-10-05T02:25:00.190Z,1008.66
2017-10-05T02:25:00.791Z,1008.66
2017-10-05T02:25:01.390Z,1008.66
2017-10-05T02:25:55.893Z,1008.61
2017-10-05T02:25:56.468Z,1008.62
2017-10-05T02:25:57.067Z,1008.61
2017-10-05T02:25:57.667Z,1008.60
2017-10-05T02:25:58.268Z,1008.60
2017-10-05T02:25:58.868Z,1008.62
2017-10-05T02:25:59.467Z,1008.63
2017-10-05T02:26:00.066Z,1008.61
2017-10-05T02:26:53.544Z,1008.61
2017-10-05T02:26:54.119Z,1008.60
2017-10-05T02:26:54.718Z,1008.58
2017-10-05T02:26:55.324Z,1008.64
2017-10-05T02:26:55.919Z,1008.64
2017-10-05T02:26:56.520Z,1008.60
2017-10-05T02:26:57.117Z,1008.64
2017-10-05T02:26:57.720Z,1008.62
2017-10-05T02:27:52.221Z,1008.62
2017-10-05T02:27:52.796Z,1008.63
2017-10-05T02:27:53.393Z,1008.63
2017-10-05T02:27:53.992Z,1008.62
2017-10-05T02:27:54.594Z,1008.59
2017-10-05T02:27:55.193Z,1008.61
2017-10-05T02:27:55.793Z,1008.65
2017-10-05T02:27:56.394Z,1008.62
2017-10-05T02:28:49.872Z,1008.68
2017-10-05T02:28:50.446Z,1008.65
2017-10-05T02:28:51.047Z,1008.73
2017-10-05T02:28:51.646Z,1008.70
2017-10-05T02:28:52.247Z,1008.70
2017-10-05T02:28:52.847Z,1008.70
2017-10-05T02:28:53.447Z,1008.70
2017-10-05T02:28:54.046Z,1008.71
2017-10-05T02:29:48.549Z,1008.67
2017-10-05T02:29:49.123Z,1008.67
2017-10-05T02:29:49.721Z,1008.70
2017-10-05T02:29:50.322Z,1008.67
2017-10-05T02:29:50.921Z,1008.68
2017-10-05T02:29:51.521Z,1008.69
2017-10-05T02:29:52.122Z,1008.68
2017-10-05T02:29:52.725Z,1008.68
2017-10-05T02:30:46.199Z,1008.71
2017-10-05T02:30:46.776Z,1008.71
2017-10-05T02:30:47.374Z,1008.69
2017-10-05T02:30:47.976Z,1008.70
2017-10-05T02:30:48.574Z,1008.71
2017-10-05T02:30:49.174Z,1008.71
2017-10-05T02:30:49.772Z,1008.69
2017-10-05T02:30:50.374Z,1008.67
2017-10-05T02:31:43.852Z,1008.65
2017-10-05T02:31:44.426Z,1008.62
2017-10-05T02:31:45.027Z,1008.65
2017-10-05T02:31:45.626Z,1008.65
2017-10-05T02:31:46.226Z,1008.64
2017-10-05T02:31:46.826Z,1008.65
2017-10-05T02:31:47.425Z,1008.68
2017-10-05T02:31:48.025Z,1008.68
2017-10-05T02:32:41.502Z,1008.64
2017-10-05T02:32:42.077Z,1008.64
2017-10-05T02:32:42.677Z,1008.63
2017-10-05T02:32:43.277Z,1008.62
2017-10-05T02:32:43.876Z,1008.61
2017-10-05T02:32:44.478Z,1008.62
2017-10-05T02:32:45.076Z,1008.63
2017-10-05T02:32:45.676Z,1008.62
2017-10-05T02:33:40.180Z,1008.64
2017-10-05T02:33:40.751Z,1008.62
2017-10-05T02:33:41.352Z,1008.63
2017-10-05T02:33:41.953Z,1008.63
2017-10-05T02:33:42.550Z,1008.64
2017-10-05T02:33:43.151Z,1008.60
2017-10-05T02:33:43.754Z,1008.59
2017-10-05T02:33:44.351Z,1008.59
2017-10-05T02:51:53.212Z,1007.90
2017-10-05T02:51:53.774Z,1007.89
2017-10-05T02:51:54.372Z,1007.91
2017-10-05T02:51:54.974Z,1007.90
2017-10-05T02:51:55.573Z,1007.88
2017-10-05T02:51:56.172Z,1007.90
2017-10-05T02:51:56.772Z,1007.87
2017-10-05T02:51:57.372Z,1007.88
2017-10-05T02:51:57.975Z,1007.87
2017-10-05T02:51:58.574Z,1007.89
2017-10-05T02:51:59.175Z,1007.86
2017-10-05T02:51:59.771Z,1007.85
2017-10-05T02:52:53.313Z,1007.80
2017-10-05T02:52:53.884Z,1007.80
2017-10-05T02:52:54.483Z,1007.82
2017-10-05T02:52:55.088Z,1007.80
2017-10-05T02:52:55.682Z,1007.80
2017-10-05T02:52:56.281Z,1007.81
2017-10-05T02:52:56.882Z,1007.81
2017-10-05T02:52:57.484Z,1007.79
2017-10-05T02:53:51.985Z,1007.79
2017-10-05T02:53:52.558Z,1007.81
2017-10-05T02:53:53.159Z,1007.81
2017-10-05T02:53:53.760Z,1007.79
2017-10-05T02:53:54.358Z,1007.80
2017-10-05T02:53:54.959Z,1007.81
2017-10-05T02:53:55.559Z,1007.80
2017-10-05T02:53:56.159Z,1007.82
2017-10-05T02:54:50.660Z,1007.76
2017-10-05T02:54:51.235Z,1007.73
2017-10-05T02:54:51.835Z,1007.76
2017-10-05T02:54:52.437Z,1007.75
2017-10-05T02:54:53.036Z,1007.78
2017-10-05T02:54:53.634Z,1007.75
2017-10-05T02:54:54.235Z,1007.74
2017-10-05T02:54:54.836Z,1007.76
2017-10-05T02:55:49.337Z,1007.70
2017-10-05T02:55:49.912Z,1007.68
2017-10-05T02:55:50.510Z,1007.62
2017-10-05T02:55:51.110Z,1007.67
2017-10-05T02:55:51.710Z,1007.69
2017-10-05T02:55:52.310Z,1007.69
2017-10-05T02:55:52.910Z,1007.68
2017-10-05T02:55:53.510Z,1007.67
2017-10-05T02:56:48.020Z,1007.63
2017-10-05T02:56:48.587Z,1007.61
2017-10-05T02:56:49.186Z,1007.62
2017-10-05T02:56:49.786Z,1007.66
2017-10-05T02:56:50.388Z,1007.62
2017-10-05T02:56:50.987Z,1007.64
2017-10-05T02:56:51.586Z,1007.61
2017-10-05T02:56:52.186Z,1007.65
2017-10-05T02:57:46.689Z,1007.58
2017-10-05T02:57:47.264Z,1007.59
2017-10-05T02:57:47.864Z,1007.61
2017-10-05T02:57:48.463Z,1007.57
2017-10-05T02:57:49.063Z,1007.56
2017-10-05T02:57:49.663Z,1007.56
2017-10-05T02:57:50.262Z,1007.56
2017-10-05T02:57:50.862Z,1007.56
2017-10-05T02:58:44.341Z,1007.49
2017-10-05T02:58:44.915Z,1007.50
2017-10-05T02:58:45.515Z,1007.50
2017-10-05T02:58:46.114Z,1007.49
2017-10-05T02:58:46.718Z,1007.48
2017-10-05T02:58:47.316Z,1007.48
2017-10-05T02:58:47.916Z,1007.47
2017-10-05T02:58:48.519Z,1007.49
2017-10-05T02:59:43.017Z,1007.42
2017-10-05T02:59:43.591Z,1007.40
2017-10-05T02:59:44.190Z,1007.42
2017-10-05T02:59:44.795Z,1007.41
2017-10-05T02:59:45.390Z,1007.43
2017-10-05T02:59:45.991Z,1007.40
2017-10-05T02:59:46.590Z,1007.43
2017-10-05T02:59:47.190Z,1007.43
2017-10-05T03:00:41.692Z,1007.34
2017-10-05T03:00:42.266Z,1007.36
2017-10-05T03:00:42.866Z,1007.36
2017-10-05T03:00:43.466Z,1007.35
2017-10-05T03:00:44.065Z,1007.34
2017-10-05T03:00:44.666Z,1007.36
2017-10-05T03:00:45.264Z,1007.32
2017-10-05T03:00:45.866Z,1007.33
2017-10-05T03:01:40.368Z,1007.32
2017-10-05T03:01:40.942Z,1007.31
2017-10-05T03:01:41.549Z,1007.33
2017-10-05T03:01:42.142Z,1007.29
2017-10-05T03:01:42.741Z,1007.30
2017-10-05T03:01:43.342Z,1007.28
2017-10-05T03:01:43.942Z,1007.29
2017-10-05T03:01:44.543Z,1007.29
2017-10-05T03:02:39.044Z,1007.28
2017-10-05T03:02:39.619Z,1007.30
2017-10-05T03:02:40.218Z,1007.29
2017-10-05T03:02:40.818Z,1007.27
2017-10-05T03:02:41.417Z,1007.29
2017-10-05T03:02:42.017Z,1007.30
2017-10-05T03:02:42.617Z,1007.28
2017-10-05T03:02:43.219Z,1007.26
2017-10-05T03:03:37.720Z,1007.24
2017-10-05T03:03:38.293Z,1007.25
2017-10-05T03:03:38.895Z,1007.25
2017-10-05T03:03:39.494Z,1007.25
2017-10-05T03:03:40.094Z,1007.25
2017-10-05T03:03:40.693Z,1007.22
2017-10-05T03:03:41.293Z,1007.22
2017-10-05T03:03:41.894Z,1007.24
2017-10-05T03:04:36.398Z,1007.17
2017-10-05T03:04:36.970Z,1007.19
2017-10-05T03:04:37.569Z,1007.21
2017-10-05T03:04:38.169Z,1007.17
2017-10-05T03:04:38.769Z,1007.20
2017-10-05T03:04:39.369Z,1007.20
2017-10-05T03:04:39.969Z,1007.21
2017-10-05T03:04:40.569Z,1007.16
2017-10-05T03:05:34.051Z,1007.12
2017-10-05T03:05:34.623Z,1007.15
2017-10-05T03:05:35.222Z,1007.15
2017-10-05T03:05:35.822Z,1007.16
2017-10-05T03:05:36.423Z,1007.18
2017-10-05T03:05:37.022Z,1007.14
2017-10-05T03:05:37.622Z,1007.20
2017-10-05T03:05:38.223Z,1007.21
2017-10-05T03:06:31.698Z,1007.06
2017-10-05T03:06:32.277Z,1007.08
2017-10-05T03:06:32.874Z,1007.07
2017-10-05T03:06:33.473Z,1007.05
2017-10-05T03:06:34.073Z,1007.09
2017-10-05T03:06:34.676Z,1007.10
2017-10-05T03:06:35.277Z,1007.08
2017-10-05T03:06:35.874Z,1007.09
2017-10-05T03:07:30.377Z,1006.98
2017-10-05T03:07:30.950Z,1006.97
2017-10-05T03:07:31.548Z,1006.97
2017-10-05T03:07:32.148Z,1006.98
2017-10-05T03:07:32.749Z,1006.97
2017-10-05T03:07:33.350Z,1007.00
2017-10-05T03:07:33.949Z,1006.98
2017-10-05T03:07:34.548Z,1007.02
2017-10-05T03:08:29.054Z,1006.90
2017-10-05T03:08:29.627Z,1006.93
2017-10-05T03:08:30.228Z,1006.92
2017-10-05T03:08:30.828Z,1006.93
2017-10-05T03:08:31.429Z,1006.94
2017-10-05T03:08:32.028Z,1006.91
2017-10-05T03:08:32.627Z,1006.95
2017-10-05T03:08:33.227Z,1006.90
2017-10-05T03:09:26.703Z,1006.88
2017-10-05T03:09:27.279Z,1006.87
2017-10-05T03:09:27.876Z,1006.89
2017-10-05T03:09:28.476Z,1006.86
2017-10-05T03:09:29.077Z,1006.90
2017-10-05T03:09:29.675Z,1006.90
2017-10-05T03:09:30.277Z,1006.87
2017-10-05T03:09:30.876Z,1006.90
2017-10-05T03:10:25.381Z,1006.78
2017-10-05T03:10:25.955Z,1006.83
2017-10-05T03:10:26.554Z,1006.85
2017-10-05T03:10:27.154Z,1006.83
2017-10-05T03:10:27.754Z,1006.84
2017-10-05T03:10:28.354Z,1006.82
2017-10-05T03:10:28.954Z,1006.82
2017-10-05T03:10:29.553Z,1006.83
2017-10-05T03:11:23.031Z,1006.78
2017-10-05T03:11:23.605Z,1006.74
2017-10-05T03:11:24.205Z,1006.73
2017-10-05T03:11:24.804Z,1006.70
2017-10-05T03:11:25.410Z,1006.76
2017-10-05T03:11:26.005Z,1006.70
2017-10-05T03:11:26.605Z,1006.75
2017-10-05T03:11:27.204Z,1006.73
2017-10-05T03:12:20.684Z,1006.63
2017-10-05T03:12:21.262Z,1006.61
2017-10-05T03:12:21.856Z,1006.61
2017-10-05T03:12:22.456Z,1006.61
2017-10-05T03:12:23.059Z,1006.62
2017-10-05T03:12:23.657Z,1006.64
2017-10-05T03:12:24.256Z,1006.62
2017-10-05T03:12:24.857Z,1006.61
2017-10-05T03:13:19.359Z,1006.51
2017-10-05T03:13:19.931Z,1006.45
2017-10-05T03:13:20.531Z,1006.49
2017-10-05T03:13:21.130Z,1006.50
2017-10-05T03:13:21.730Z,1006.46
2017-10-05T03:13:22.331Z,1006.50
2017-10-05T03:13:22.930Z,1006.53
2017-10-05T03:13:23.529Z,1006.48
2017-10-05T03:14:17.009Z,1006.44
2017-10-05T03:14:17.584Z,1006.41
2017-10-05T03:14:18.184Z,1006.43
2017-10-05T03:14:18.784Z,1006.44
2017-10-05T03:14:19.384Z,1006.42
2017-10-05T03:14:19.992Z,1006.42
2017-10-05T03:14:20.584Z,1006.45
2017-10-05T03:14:21.181Z,1006.42
2017-10-05T03:15:14.661Z,1006.35
2017-10-05T03:15:15.235Z,1006.36
2017-10-05T03:15:15.835Z,1006.35
2017-10-05T03:15:16.434Z,1006.28
2017-10-05T03:15:17.036Z,1006.36
2017-10-05T03:15:17.636Z,1006.35
2017-10-05T03:15:18.234Z,1006.35
2017-10-05T03:15:18.846Z,1006.34
2017-10-05T03:16:12.313Z,1006.24
2017-10-05T03:16:12.888Z,1006.26
2017-10-05T03:16:13.487Z,1006.24
2017-10-05T03:16:14.087Z,1006.22
2017-10-05T03:16:14.687Z,1006.19
2017-10-05T03:16:15.287Z,1006.25
2017-10-05T03:16:15.886Z,1006.22
2017-10-05T03:16:16.486Z,1006.25
2017-10-05T03:17:09.963Z,1006.10
2017-10-05T03:17:10.538Z,1006.12
2017-10-05T03:17:11.139Z,1006.12
2017-10-05T03:17:11.738Z,1006.10
2017-10-05T03:17:12.339Z,1006.10
2017-10-05T03:17:12.937Z,1006.10
2017-10-05T03:17:13.538Z,1006.12
2017-10-05T03:17:14.139Z,1006.08
2017-10-05T03:18:08.642Z,1006.00
2017-10-05T03:18:09.213Z,1006.02
2017-10-05T03:18:09.814Z,1006.02
2017-10-05T03:18:10.413Z,1006.02
2017-10-05T03:18:11.012Z,1006.00
2017-10-05T03:18:11.612Z,1006.02
2017-10-05T03:18:12.213Z,1005.98
2017-10-05T03:18:12.812Z,1005.98
2017-10-05T03:19:06.291Z,1005.85
2017-10-05T03:19:06.867Z,1005.89
2017-10-05T03:19:07.465Z,1005.89
2017-10-05T03:19:08.066Z,1005.89
2017-10-05T03:19:08.665Z,1005.85
2017-10-05T03:19:09.266Z,1005.88
2017-10-05T03:19:09.866Z,1005.88
2017-10-05T03:19:10.466Z,1005.88
2017-10-05T03:20:04.969Z,1005.87
2017-10-05T03:20:05.541Z,1005.85
2017-10-05T03:20:06.140Z,1005.84
2017-10-05T03:20:06.740Z,1005.87
2017-10-05T03:20:07.340Z,1005.84
2017-10-05T03:20:07.941Z,1005.85
2017-10-05T03:20:08.539Z,1005.88
2017-10-05T03:20:09.140Z,1005.88
2017-10-05T03:21:03.644Z,1005.79
2017-10-05T03:21:04.220Z,1005.82
2017-10-05T03:21:04.819Z,1005.78
2017-10-05T03:21:05.421Z,1005.78
2017-10-05T03:21:06.020Z,1005.78
2017-10-05T03:21:06.619Z,1005.79
2017-10-05T03:21:07.217Z,1005.80
2017-10-05T03:21:07.819Z,1005.78
2017-10-05T03:22:02.329Z,1005.66
2017-10-05T03:22:02.892Z,1005.66
2017-10-05T03:22:03.491Z,1005.64
2017-10-05T03:22:04.097Z,1005.62